Flight Number: AVA4012 Duration: 1:15
Departure: Singapore Changi Airport (WSSS) at 01:00 Distance: 545.466 Nm
Arrival: Koh Samui (VTSM) at 02:15 Equipment: B737

Weather Information
Singapore / Changi Airport, Singapore (WSSS) 01-22N 103-59E 16M Aug 14, 2020 - 06:30 PM EDT / 2020.08.14 2230 UTC
Wind: Variable at 2 MPH (2 KT):0
Visibility: 3 mile(s):0
Sky conditions: mostly cloudy Temperature: 77 F (25 C) Dew Point: 73 F (23 C) Relative Humidity: 88% Pressure (altimeter): 29.80 in. Hg (1009 hPa)
ob: WSSS 142230Z VRB02KT 6000 FEW018 BKN160 25/23 Q1009 NOSIG cycle: 22
Sunrise: 23:06 Sunset: 11:11 (UTC)

Station name not available Aug 14, 2020 - 06:30 PM EDT / 2020.08.14 2230 UTC
Wind: Calm:0
Visibility: greater than 7 mile(s):0
Sky conditions: mostly clear Weather: light rain Temperature: 82 F (28 C) Dew Point: 77 F (25 C) Relative Humidity: 83% Pressure (altimeter): 29.80 in. Hg (1009 hPa)
ob: VTSM 142230Z 00000KT 9999 -RA FEW020 28/25 Q1009 NOSIG cycle: 22
Sunrise: 23:13 Sunset: 11:35 (UTC)

TAF:2020/08/14 18:00 TAF VTSM 141700Z 1418/1518 16005KT 9999 FEW020 TEMPO 1508/1514 29010G20KT 5000 TSRA FEW016CB SCT018 BKN100

This route has never been flown.

Route map